Weather at Galway Downs Airport

Public forecast

Using degrees Celsius for public forecast. Weather courtesy of forecast.io.

Closest aviation weather report (METAR) to Galway Downs Airport

Report is more than 6 hours old.

Closest report is Longreach Airport, 136.6 nm (253.0 km) NE. Retrieved 2022/06/20 22:12 UTC (7 days ago):

YLRE 202212Z AUTO 13004KT 9999 // NCD 12/09 Q1021

Closest aviation forecast (TAF) to Galway Downs Airport

Closest forecast is Rockhampton Airport, 439.6 nm (814.2 km) ENE. Retrieved 2022/06/27 12:36 UTC (0 seconds ago):

TAF YBRK 271110Z 2712/2812 18006KT CAVOK FM280000 12014KT CAVOK FM280400 11014KT 9999 SCT035